Terminal Aerodrome Forecast
Issued by NWS

Current Version | Previous Version | Text Only | Print | Product List | Glossary Off
Versions: 1 2 3 4 5 6 7 8 9 10 11 12 13 14 15 16 17 18 19 20 21 22 23 24 25 26 27 28

000
FTUS41 KRLX 241700
TAFCKB
TAF
KCKB 241731Z 2418/2518 00000KT P6SM BKN035
     FM250000 VRB03KT P6SM BKN250
     FM250800 12004KT P6SM BKN070
     FM251500 17008KT P6SM BKN250=

USA.gov is the U.S. government's official web portal to all federal, state and local government web resources and services.